Time;durP1;ratioP1;P1;durP2;ratioP2;P2;SDS_P1;SDS_P2;PMS_P1;PMS_P2;Temp;Humidity;BMP_temperature;BMP_pressure;BME280_temperature;BME280_humidity;BME280_pressure;Samples;Min_cycle;Max_cycle;Signal;HPM_P1;HPM_P2
2021/11/29 00:02:32;;;;;;;3.53;3.25;;;;;;;1.58;95.44;100522.69;10574560;28;20107;-75
2021/11/29 00:07:33;;;;;;;2.30;2.17;;;;;;;1.64;96.14;100531.94;10586425;28;20047;-75
2021/11/29 00:12:33;;;;;;;4.22;1.98;;;;;;;1.74;96.35;100554.06;10586477;28;20407;-75
2021/11/29 00:17:34;;;;;;;2.88;2.15;;;;;;;1.81;96.91;100571.16;10572286;28;20063;-76
2021/11/29 00:22:34;;;;;;;2.10;2.00;;;;;;;1.82;96.17;100567.53;10569333;28;20063;-76
2021/11/29 00:27:35;;;;;;;2.95;2.70;;;;;;;1.75;95.79;100557.56;10568993;28;20051;-77
2021/11/29 00:32:36;;;;;;;2.22;1.88;;;;;;;1.62;95.29;100568.59;10568991;28;20032;-77
2021/11/29 00:37:36;;;;;;;5.47;2.28;;;;;;;1.57;95.62;100568.22;10586860;28;20035;-77
2021/11/29 00:42:37;;;;;;;2.05;1.95;;;;;;;1.64;95.76;100574.63;10551024;28;20172;-76
2021/11/29 00:47:38;;;;;;;1.80;1.70;;;;;;;1.57;95.18;100561.06;10586021;28;20051;-78
2021/11/29 00:52:40;;;;;;;2.05;1.83;;;;;;;1.35;93.39;100548.09;10567389;28;20047;-76
2021/11/29 00:57:43;;;;;;;1.92;1.83;;;;;;;1.21;93.74;100560.03;10567960;28;20035;-76
2021/11/29 01:02:46;;;;;;;2.55;1.80;;;;;;;1.12;93.72;100547.63;10566488;28;20055;-75
2021/11/29 01:07:47;;;;;;;2.30;2.20;;;;;;;1.23;94.68;100560.75;10586349;28;20028;-75
2021/11/29 01:12:47;;;;;;;2.50;2.33;;;;;;;1.29;94.22;100564.66;10567966;28;20032;-77
2021/11/29 01:17:48;;;;;;;2.72;2.53;;;;;;;1.40;95.05;100577.81;10549843;28;20031;-76
2021/11/29 01:22:48;;;;;;;2.88;2.67;;;;;;;1.45;94.63;100599.56;10584202;28;20036;-76
2021/11/29 01:27:48;;;;;;;2.30;2.10;;;;;;;1.52;94.90;100614.00;10583501;28;20118;-77
2021/11/29 01:32:51;;;;;;;5.03;3.88;;;;;;;1.54;96.18;100627.22;10583337;28;20051;-76
2021/11/29 01:37:52;;;;;;;4.70;4.28;;;;;;;1.52;96.62;100622.00;10566126;28;20046;-76
2021/11/29 01:42:59;;;;;;;3.20;3.08;;;;;;;1.30;94.96;100609.03;10566029;28;20042;-76
2021/11/29 01:47:59;;;;;;;3.95;3.75;;;;;;;1.30;95.77;100617.88;10583655;28;20059;-78
2021/11/29 01:53:00;;;;;;;4.38;3.97;;;;;;;1.40;95.95;100617.84;10565024;28;20080;-76
2021/11/29 01:58:00;;;;;;;4.63;4.25;;;;;;;1.48;97.17;100641.97;10583212;28;20036;-76
2021/11/29 02:03:00;;;;;;;6.18;5.53;;;;;;;1.58;96.76;100658.78;10564728;28;20032;-76
2021/11/29 02:08:01;;;;;;;5.45;4.95;;;;;;;1.45;96.03;100638.75;10565514;28;20039;-75
2021/11/29 02:13:04;;;;;;;14.13;5.90;;;;;;;1.33;95.25;100635.41;10584876;28;20106;-75
2021/11/29 02:18:06;;;;;;;6.43;4.38;;;;;;;1.19;94.44;100620.72;10585097;28;20058;-75
2021/11/29 02:23:06;;;;;;;6.10;5.35;;;;;;;1.02;94.31;100621.44;10583233;28;20035;-76
2021/11/29 02:28:07;;;;;;;5.55;5.07;;;;;;;0.94;93.89;100624.81;10563811;28;20032;-74
2021/11/29 02:33:08;;;;;;;8.32;5.30;;;;;;;0.91;94.55;100614.44;10588267;28;20035;-76
2021/11/29 02:38:08;;;;;;;5.10;4.57;;;;;;;0.86;94.78;100612.22;10563915;28;20027;-75
2021/11/29 02:43:12;;;;;;;8.27;4.50;;;;;;;0.88;94.44;100609.38;10563317;28;20107;-76
2021/11/29 02:48:12;;;;;;;6.10;4.65;;;;;;;0.90;94.48;100610.09;10580958;28;20109;-76
2021/11/29 02:53:13;;;;;;;6.40;4.72;;;;;;;0.99;95.34;100601.25;10563975;28;20071;-75
2021/11/29 02:58:13;;;;;;;4.28;3.90;;;;;;;1.00;94.98;100597.59;10563042;28;20031;-75
2021/11/29 03:03:14;;;;;;;6.00;3.40;;;;;;;1.10;94.74;100602.91;10563390;28;20032;-75
2021/11/29 03:08:20;;;;;;;5.00;3.50;;;;;;;1.20;95.58;100589.53;10563166;28;20039;-76
2021/11/29 03:13:20;;;;;;;3.97;3.67;;;;;;;1.33;95.52;100598.06;10562738;28;20028;-75
2021/11/29 03:18:50;;;;;;;4.35;2.88;;;;;;;1.42;94.56;100602.53;10581075;28;20136;-75
2021/11/29 03:23:52;;;;;;;2.95;2.83;;;;;;;1.45;95.32;100641.44;10582047;28;20050;-76
2021/11/29 03:28:54;;;;;;;10.73;3.13;;;;;;;1.56;95.57;100644.78;10583247;28;20032;-76
2021/11/29 03:33:58;;;;;;;3.67;2.72;;;;;;;1.70;95.10;100647.94;10582025;28;20111;-76
2021/11/29 03:38:58;;;;;;;9.05;4.03;;;;;;;1.85;94.84;100662.47;10550491;28;20058;-78
2021/11/29 03:44:02;;;;;;;17.88;3.95;;;;;;;1.96;95.66;100664.97;10567614;28;20090;-75
2021/11/29 03:49:05;;;;;;;3.55;2.70;;;;;;;2.13;95.80;100617.09;10553702;28;20078;-78
2021/11/29 03:54:06;;;;;;;5.93;2.55;;;;;;;2.21;95.21;100619.88;10591988;28;20118;-77
2021/11/29 03:59:09;;;;;;;5.68;2.22;;;;;;;2.18;93.31;100623.69;10591997;28;20114;-77
2021/11/29 04:04:09;;;;;;;8.00;2.65;;;;;;;2.12;92.90;100626.09;10590143;28;20457;-75
2021/11/29 04:09:12;;;;;;;7.07;2.03;;;;;;;2.14;92.63;100637.47;10589018;28;20123;-76
2021/11/29 04:14:13;;;;;;;15.75;2.70;;;;;;;2.13;91.97;100644.66;10587650;28;20063;-78
2021/11/29 04:19:16;;;;;;;10.65;2.80;;;;;;;2.18;92.56;100647.72;10587336;28;20167;-76
2021/11/29 04:24:17;;;;;;;6.18;2.05;;;;;;;2.19;91.76;100654.72;10570335;28;20039;-75
2021/11/29 04:29:21;;;;;;;3.50;2.22;;;;;;;2.24;91.56;100628.44;10571109;28;20109;-76
2021/11/29 04:34:21;;;;;;;9.77;2.60;;;;;;;2.40;92.32;100630.44;10570584;28;20383;-75
2021/11/29 04:39:25;;;;;;;3.55;2.25;;;;;;;2.62;93.11;100647.84;10587300;28;20106;-75
2021/11/29 04:44:25;;;;;;;6.65;2.15;;;;;;;2.71;93.14;100656.78;10586288;28;20381;-75
2021/11/29 04:49:25;;;;;;;8.25;3.40;;;;;;;2.61;92.40;100643.47;10568341;28;20134;-77
2021/11/29 04:54:26;;;;;;;24.25;3.72;;;;;;;2.64;92.19;100656.53;10569133;28;20490;-76
2021/11/29 04:59:31;;;;;;;8.40;2.65;;;;;;;2.72;93.46;100672.69;10586323;28;20051;-75
2021/11/29 05:04:32;;;;;;;7.03;2.77;;;;;;;2.78;93.94;100665.91;10584920;28;20385;-76
2021/11/29 05:09:32;;;;;;;1.60;1.50;;;;;;;3.00;94.38;100670.78;10567135;28;20023;-76
2021/11/29 05:14:33;;;;;;;4.50;3.17;;;;;;;3.00;93.84;100681.47;10584972;28;20032;-76
2021/11/29 05:19:33;;;;;;;8.77;2.90;;;;;;;3.08;94.44;100661.13;10567166;28;20059;-75
2021/11/29 05:24:34;;;;;;;4.60;2.92;;;;;;;3.11;93.86;100661.66;10566190;28;20448;-75
2021/11/29 05:29:34;;;;;;;8.90;2.67;;;;;;;3.06;93.36;100669.28;10566130;28;20028;-75
2021/11/29 05:34:34;;;;;;;2.78;2.35;;;;;;;3.24;94.08;100688.84;10585263;28;20070;-74
2021/11/29 05:39:35;;;;;;;7.80;3.15;;;;;;;3.45;94.39;100690.34;10584116;28;20101;-75
2021/11/29 05:44:35;;;;;;;4.30;2.88;;;;;;;3.42;93.23;100707.56;10583625;28;20063;-74
2021/11/29 05:49:35;;;;;;;1.92;1.83;;;;;;;3.43;93.45;100717.28;10583163;28;20051;-75
2021/11/29 05:54:36;;;;;;;4.68;2.97;;;;;;;3.44;94.14;100732.31;10581698;28;20134;-77
2021/11/29 05:59:39;;;;;;;8.48;2.47;;;;;;;3.30;95.10;100746.28;10583175;28;20035;-77
2021/11/29 06:04:42;;;;;;;11.40;3.45;;;;;;;3.11;94.71;100730.38;10564938;28;20032;-77
2021/11/29 06:09:42;;;;;;;5.28;2.25;;;;;;;2.96;94.21;100717.53;10567339;28;20031;-76
2021/11/29 06:14:43;;;;;;;11.13;3.00;;;;;;;2.78;93.16;100722.88;10549610;28;20122;-78
2021/11/29 06:19:52;;;;;;;11.07;3.05;;;;;;;2.53;92.10;100735.13;10581881;28;20059;-78
2021/11/29 06:24:53;;;;;;;6.50;2.50;;;;;;;2.39;91.75;100742.81;10564385;28;20034;-77
2021/11/29 06:29:53;;;;;;;11.50;3.35;;;;;;;2.28;91.70;100738.50;10582228;28;20039;-78
2021/11/29 06:34:53;;;;;;;14.77;3.55;;;;;;;2.27;92.11;100744.84;10563619;28;20086;-78
2021/11/29 06:39:56;;;;;;;11.88;3.00;;;;;;;2.32;92.30;100739.88;10581827;28;20080;-76
2021/11/29 06:44:59;;;;;;;6.57;3.58;;;;;;;2.52;93.72;100743.28;10562905;28;20027;-76
2021/11/29 06:50:02;;;;;;;16.70;3.22;;;;;;;2.83;94.42;100751.84;10583421;28;20052;-77
2021/11/29 06:55:06;;;;;;;7.70;2.53;;;;;;;3.12;94.67;100762.31;10582705;28;20027;-75
2021/11/29 07:00:09;;;;;;;18.73;4.60;;;;;;;3.35;94.45;100761.84;10562674;28;20047;-76
2021/11/29 07:05:10;;;;;;;9.40;2.95;;;;;;;3.49;93.67;100764.84;10564146;28;20123;-76
2021/11/29 07:10:11;;;;;;;11.10;3.58;;;;;;;3.67;93.41;100777.34;10581336;28;20035;-78
2021/11/29 07:15:11;;;;;;;13.73;3.40;;;;;;;3.71;93.16;100773.38;10564078;28;20027;-76
2021/11/29 07:20:12;;;;;;;6.30;2.67;;;;;;;3.96;94.42;100790.47;10594212;28;20046;-77
2021/11/29 07:25:13;;;;;;;12.77;3.08;;;;;;;4.10;93.82;100786.38;10586573;28;20424;-78
2021/11/29 07:30:14;;;;;;;10.48;3.28;;;;;;;4.13;92.83;100799.44;10571507;28;20040;-78
2021/11/29 07:35:15;;;;;;;11.02;3.80;;;;;;;4.08;91.72;100793.69;10589019;28;20111;-75
2021/11/29 07:40:15;;;;;;;3.40;1.65;;;;;;;4.10;91.53;100797.06;10588759;28;20110;-75
2021/11/29 07:45:16;;;;;;;5.13;2.03;;;;;;;4.04;91.24;100797.72;10587230;28;20038;-74
2021/11/29 07:50:17;;;;;;;9.18;3.33;;;;;;;4.04;90.61;100808.44;10552388;28;20058;-77
2021/11/29 07:55:21;;;;;;;12.73;3.80;;;;;;;4.14;91.53;100812.66;10587258;28;20043;-75
2021/11/29 08:00:23;;;;;;;12.80;3.70;;;;;;;4.47;92.77;100825.41;10586963;28;20487;-74
2021/11/29 08:05:24;;;;;;;6.25;2.20;;;;;;;4.83;94.99;100847.56;10588766;28;20032;-75
2021/11/29 08:10:24;;;;;;;10.48;2.65;;;;;;;4.76;95.02;100847.38;10589874;28;20027;-75
2021/11/29 08:15:25;;;;;;;9.63;3.70;;;;;;;4.69;95.04;100840.97;10586883;28;20492;-76
2021/11/29 08:20:25;;;;;;;11.45;3.45;;;;;;;4.69;94.23;100853.53;10586203;28;20059;-75
2021/11/29 08:25:26;;;;;;;13.10;2.35;;;;;;;4.90;95.11;100840.53;10587769;28;20028;-76
2021/11/29 08:30:26;;;;;;;11.55;2.72;;;;;;;5.68;97.18;100837.53;10586472;28;20040;-75
2021/11/29 08:35:26;;;;;;;10.32;3.92;;;;;;;5.34;95.78;100837.66;10584927;28;20493;-75
2021/11/29 08:40:31;;;;;;;11.63;4.25;;;;;;;5.26;95.29;100843.84;10567979;28;20436;-75
2021/11/29 08:45:32;;;;;;;4.53;2.53;;;;;;;5.44;95.15;100861.69;10550777;28;20027;-75
2021/11/29 08:50:33;;;;;;;9.23;2.85;;;;;;;5.47;94.86;100872.09;10567367;28;20425;-74
2021/11/29 08:55:35;;;;;;;10.63;2.83;;;;;;;5.46;94.48;100870.41;10586740;28;20034;-74
2021/11/29 09:00:36;;;;;;;9.82;2.75;;;;;;;5.52;94.94;100883.16;10567781;28;20097;-75
2021/11/29 09:05:38;;;;;;;11.98;3.22;;;;;;;5.49;94.50;100891.56;10568115;28;20036;-74
2021/11/29 09:10:39;;;;;;;8.80;3.08;;;;;;;5.58;94.87;100895.94;10584987;28;20390;-77
2021/11/29 09:15:41;;;;;;;11.50;3.35;;;;;;;5.65;95.32;100907.72;10566680;28;20382;-78
2021/11/29 09:20:42;;;;;;;11.00;2.70;;;;;;;5.80;95.71;100914.09;10568009;28;20059;-77
2021/11/29 09:25:42;;;;;;;5.82;2.55;;;;;;;5.79;95.95;100912.44;10567359;28;20059;-75
2021/11/29 09:30:43;;;;;;;7.43;2.97;;;;;;;5.96;96.52;100923.22;10569239;28;20035;-75
2021/11/29 09:35:44;;;;;;;9.90;3.60;;;;;;;6.09;97.38;100925.41;10585547;28;20032;-76
2021/11/29 09:40:44;;;;;;;8.13;2.63;;;;;;;6.17;97.96;100941.56;10483022;28;20701;-75
2021/11/29 09:45:46;;;;;;;7.50;2.72;;;;;;;6.12;96.74;100958.19;10564556;28;20549;-76
2021/11/29 09:50:49;;;;;;;13.65;3.00;;;;;;;5.89;96.17;100943.69;10584271;28;20070;-75
2021/11/29 09:55:50;;;;;;;4.85;2.70;;;;;;;5.97;95.97;100954.50;10564322;28;20031;-76
2021/11/29 10:00:52;;;;;;;3.28;2.47;;;;;;;6.08;95.95;100962.22;10564436;28;20034;-76
2021/11/29 10:05:53;;;;;;;6.28;2.47;;;;;;;6.42;96.11;100972.81;10564497;28;20085;-74
2021/11/29 10:10:55;;;;;;;4.07;2.13;;;;;;;6.56;96.62;100976.69;10547543;28;20032;-75
2021/11/29 10:15:56;;;;;;;6.13;2.60;;;;;;;6.50;95.78;100969.28;10581866;28;20063;-75
2021/11/29 10:20:56;;;;;;;6.85;2.70;;;;;;;6.84;96.69;100969.06;10570700;28;20046;-76
2021/11/29 10:25:57;;;;;;;4.77;3.10;;;;;;;6.64;95.82;100965.09;10564605;28;20039;-76
2021/11/29 10:31:04;;;;;;;3.28;2.38;;;;;;;7.38;93.77;100961.16;10564001;28;20271;-76
2021/11/29 10:36:11;;;;;;;9.95;2.38;;;;;;;9.32;96.23;100974.28;10567012;28;20028;-76
2021/11/29 10:41:12;;;;;;;4.65;2.28;;;;;;;8.58;97.12;100964.25;10566643;28;20367;-77
2021/11/29 10:46:23;;;;;;;8.35;2.60;;;;;;;8.12;96.09;100966.94;10567999;28;20117;-77
2021/11/29 10:51:23;;;;;;;5.22;1.90;;;;;;;7.85;97.15;100983.66;10589572;28;20054;-76
2021/11/29 10:56:25;;;;;;;6.28;2.80;;;;;;;7.59;96.83;100970.47;10553380;28;20027;-76
2021/11/29 11:01:45;;;;;;;7.55;2.05;;;;;;;7.69;97.42;100985.44;10585981;28;20084;-75
2021/11/29 11:06:59;;;;;;;14.10;2.47;;;;;;;7.75;97.91;101005.44;10590254;28;20032;-77
2021/11/29 11:12:04;;;;;;;13.20;2.20;;;;;;;6.95;94.63;101006.38;10567297;28;20036;-77
2021/11/29 11:17:05;;;;;;;1.83;1.73;;;;;;;6.47;94.90;100996.53;10565137;28;20036;-79
2021/11/29 11:22:14;;;;;;;7.22;2.70;;;;;;;6.43;95.46;100996.03;10588256;28;20043;-75
2021/11/29 11:27:15;;;;;;;5.20;2.85;;;;;;;6.55;94.94;101011.84;10568108;28;20532;-77
2021/11/29 11:32:20;;;;;;;2.75;2.50;;;;;;;6.71;95.88;101001.06;10580907;28;20120;-76
2021/11/29 11:37:23;;;;;;;5.03;2.83;;;;;;;6.62;94.94;100999.38;10565541;28;20063;-76
2021/11/29 11:42:23;;;;;;;5.63;2.85;;;;;;;6.79;94.49;101008.28;10564313;28;20035;-76
2021/11/29 11:47:25;;;;;;;8.30;3.03;;;;;;;7.07;94.43;101000.66;10556488;28;20055;-76
2021/11/29 11:52:26;;;;;;;5.82;2.58;;;;;;;7.44;95.69;101008.97;10574980;28;20031;-73
2021/11/29 11:57:27;;;;;;;4.07;2.55;;;;;;;7.42;95.87;101004.75;10561835;28;20036;-73
2021/11/29 12:03:04;;;;;;;5.10;2.75;;;;;;;6.87;94.62;101021.72;10546392;28;20114;-76
2021/11/29 12:08:05;;;;;;;6.20;2.47;;;;;;;6.54;95.11;101016.38;10581401;28;20047;-72
2021/11/29 12:13:16;;;;;;;5.35;1.77;;;;;;;6.43;95.62;101020.22;10536448;28;20072;-74
2021/11/29 12:18:38;;;;;;;6.05;1.75;;;;;;;6.42;95.01;101031.16;10586482;28;20116;-73
2021/11/29 12:23:42;;;;;;;0.93;0.93;;;;;;;6.49;95.75;101035.69;10586725;28;20469;-75
2021/11/29 12:28:44;;;;;;;1.67;1.58;;;;;;;6.50;96.08;101029.31;10569858;28;20043;-74
2021/11/29 12:33:44;;;;;;;9.85;1.73;;;;;;;6.41;95.05;101026.78;10570642;28;20118;-76
2021/11/29 12:38:47;;;;;;;2.10;1.77;;;;;;;6.63;95.43;101038.72;10537500;28;20211;-75
2021/11/29 12:43:49;;;;;;;6.32;2.25;;;;;;;6.65;96.67;101044.78;10552633;28;20497;-71
2021/11/29 12:48:50;;;;;;;8.18;3.08;;;;;;;6.48;96.27;101044.78;10535964;28;20055;-75
2021/11/29 12:53:50;;;;;;;4.95;2.30;;;;;;;6.58;96.21;101043.78;10567585;28;20042;-74
2021/11/29 12:59:05;;;;;;;13.38;3.13;;;;;;;6.97;96.60;101043.91;10566881;28;20035;-73
2021/11/29 13:04:19;;;;;;;6.15;2.70;;;;;;;6.83;96.73;101041.91;10587270;28;20036;-73
2021/11/29 13:09:19;;;;;;;6.30;2.22;;;;;;;6.73;96.01;101042.06;10568399;28;20036;-72
2021/11/29 13:14:24;;;;;;;7.25;2.00;;;;;;;6.63;95.80;101044.94;10585717;28;20035;-73
2021/11/29 13:19:38;;;;;;;5.97;2.08;;;;;;;6.53;95.70;101038.91;10585668;28;20035;-74
2021/11/29 13:24:44;;;;;;;5.82;1.45;;;;;;;6.83;96.37;101049.97;10549582;28;20063;-75
2021/11/29 13:29:58;;;;;;;5.20;2.50;;;;;;;6.82;96.08;101062.59;10585436;28;20490;-74
2021/11/29 13:35:06;;;;;;;6.55;2.08;;;;;;;6.72;95.95;101068.16;10566450;28;20428;-73
2021/11/29 13:40:15;;;;;;;1.25;1.15;;;;;;;6.44;95.88;101073.00;10568138;28;20115;-72
2021/11/29 13:45:17;;;;;;;4.53;3.40;;;;;;;6.19;95.54;101066.78;10567967;28;20035;-76
2021/11/29 13:50:28;;;;;;;6.70;2.92;;;;;;;6.22;95.68;101066.44;10584599;28;20054;-74
2021/11/29 13:55:43;;;;;;;6.03;2.13;;;;;;;6.24;96.06;101066.25;10565721;28;20438;-74
2021/11/29 14:00:45;;;;;;;3.97;1.45;;;;;;;6.39;95.70;101071.84;10564489;28;20343;-72
2021/11/29 14:05:53;;;;;;;2.45;2.25;;;;;;;6.38;95.88;101084.47;10582645;28;20351;-73
2021/11/29 14:11:00;;;;;;;7.82;2.80;;;;;;;6.32;95.41;101089.63;10584262;28;20035;-71
2021/11/29 14:16:02;;;;;;;10.60;2.28;;;;;;;6.19;95.59;101071.28;10582358;28;20062;-74
2021/11/29 14:21:06;;;;;;;5.07;2.17;;;;;;;6.07;95.30;101089.59;10582539;28;20447;-73
2021/11/29 14:26:07;;;;;;;10.90;2.78;;;;;;;6.17;96.01;101101.03;10582145;28;20029;-72
2021/11/29 14:31:09;;;;;;;3.30;2.47;;;;;;;6.40;96.75;101111.19;10564537;28;20095;-72
2021/11/29 14:36:32;;;;;;;4.88;2.13;;;;;;;6.26;96.18;101126.94;10528484;28;20031;-72
2021/11/29 14:41:49;;;;;;;1.90;1.55;;;;;;;6.01;95.90;101133.25;10582553;28;20455;-73
2021/11/29 14:46:50;;;;;;;;;;;;;;;5.86;95.49;101145.59;10547733;28;20034;-74
2021/11/29 14:52:03;;;;;;;11.82;2.15;;;;;;;5.74;95.51;101148.56;10546075;28;19921;-72
2021/11/29 14:57:05;;;;;;;3.47;2.13;;;;;;;5.74;96.12;101153.94;10581529;28;20036;-72
2021/11/29 15:02:06;;;;;;;8.95;2.45;;;;;;;5.80;95.85;101155.97;10546147;28;20035;-74
2021/11/29 15:07:09;;;;;;;5.63;2.15;;;;;;;5.68;95.74;101164.44;10545994;28;20126;-73
2021/11/29 15:12:21;;;;;;;7.75;1.65;;;;;;;5.43;95.74;101150.06;10563406;28;20084;-77
2021/11/29 15:17:25;;;;;;;7.43;2.13;;;;;;;5.41;96.16;101162.78;10436476;28;20040;-76
2021/11/29 15:22:27;;;;;;;1.67;1.58;;;;;;;5.42;96.50;101162.59;10541954;28;20411;-75
2021/11/29 15:27:29;;;;;;;10.82;2.15;;;;;;;5.39;96.03;101165.59;10537174;28;20032;-74
2021/11/29 15:32:32;;;;;;;6.57;2.92;;;;;;;5.36;96.50;101172.16;10538499;28;20077;-74
2021/11/29 15:37:33;;;;;;;4.20;1.73;;;;;;;5.31;96.86;101185.22;10451787;28;20491;-74
2021/11/29 15:42:33;;;;;;;13.18;3.92;;;;;;;5.36;96.75;101190.97;10519855;28;20032;-72
2021/11/29 15:47:34;;;;;;;2.80;2.13;;;;;;;5.44;96.65;101187.47;10544129;28;20403;-75
2021/11/29 15:52:35;;;;;;;6.85;2.53;;;;;;;5.48;96.11;101190.69;10548022;28;20040;-74
2021/11/29 15:57:35;;;;;;;6.82;2.75;;;;;;;5.48;96.20;101182.63;10547483;28;20082;-75
2021/11/29 16:02:35;;;;;;;4.53;2.58;;;;;;;5.45;95.98;101191.00;10546570;28;20474;-75
2021/11/29 16:07:36;;;;;;;12.98;3.35;;;;;;;5.43;95.65;101193.88;10545605;28;20036;-74
2021/11/29 16:12:36;;;;;;;8.68;3.22;;;;;;;5.48;95.74;101196.06;10544684;28;20360;-74
2021/11/29 16:17:37;;;;;;;5.15;2.60;;;;;;;5.45;95.20;101202.59;10545157;28;20138;-73
2021/11/29 16:22:38;;;;;;;2.90;2.30;;;;;;;5.38;94.15;101206.91;10544845;28;20440;-75
2021/11/29 16:27:38;;;;;;;6.95;1.92;;;;;;;5.35;93.71;101208.06;10544260;28;20043;-73
2021/11/29 16:32:40;;;;;;;12.70;2.75;;;;;;;5.43;94.01;101217.19;10543310;28;20035;-73
2021/11/29 16:37:41;;;;;;;6.65;3.15;;;;;;;5.43;93.95;101209.13;10544585;28;20047;-75
2021/11/29 16:42:41;;;;;;;5.85;2.60;;;;;;;5.46;93.97;101216.88;10545453;28;20036;-72
2021/11/29 16:47:42;;;;;;;16.20;3.33;;;;;;;5.53;94.05;101232.22;10543661;28;20552;-73
2021/11/29 16:52:42;;;;;;;10.05;2.47;;;;;;;5.54;94.09;101239.25;10542316;28;20055;-74
2021/11/29 16:57:42;;;;;;;2.92;2.30;;;;;;;5.52;92.89;101246.66;10543269;28;20032;-72
2021/11/29 17:02:43;;;;;;;3.45;2.05;;;;;;;5.46;93.39;101251.81;10542585;28;20065;-72
2021/11/29 17:07:43;;;;;;;8.48;1.83;;;;;;;5.47;93.51;101256.16;10542934;28;20040;-73
2021/11/29 17:12:44;;;;;;;1.65;1.55;;;;;;;5.40;93.43;101263.16;10542655;28;20032;-73
2021/11/29 17:17:44;;;;;;;10.57;2.60;;;;;;;5.45;94.23;101260.84;10543053;28;20388;-71
2021/11/29 17:22:45;;;;;;;3.88;2.42;;;;;;;5.52;94.66;101253.84;10542311;28;20357;-72
2021/11/29 17:27:49;;;;;;;5.43;2.30;;;;;;;5.56;95.00;101261.44;10541632;28;20073;-72
2021/11/29 17:32:49;;;;;;;5.40;2.83;;;;;;;5.58;95.30;101267.50;10542638;28;20036;-73
2021/11/29 17:37:50;;;;;;;3.15;1.95;;;;;;;5.54;94.53;101273.34;10543403;28;20478;-73
2021/11/29 17:42:50;;;;;;;2.47;1.55;;;;;;;5.60;95.25;101264.66;10543976;28;20036;-74
2021/11/29 17:47:52;;;;;;;3.17;1.73;;;;;;;5.63;94.96;101277.78;10543106;28;20101;-74
2021/11/29 17:52:52;;;;;;;2.22;1.85;;;;;;;5.66;95.08;101277.47;10541295;28;20031;-74
2021/11/29 17:57:54;;;;;;;3.92;1.83;;;;;;;5.61;94.76;101274.41;10542289;28;20111;-73
2021/11/29 18:02:55;;;;;;;4.15;2.45;;;;;;;5.57;94.53;101275.72;10546636;28;20077;-73
2021/11/29 18:08:08;;;;;;;3.92;2.28;;;;;;;5.49;93.95;101284.56;10529716;28;20225;-74
2021/11/29 18:13:09;;;;;;;1.90;1.70;;;;;;;5.48;94.01;101284.69;10544353;28;20383;-73
2021/11/29 18:18:10;;;;;;;12.60;3.17;;;;;;;5.36;93.53;101289.47;10540192;28;20030;-74
2021/11/29 18:23:10;;;;;;;12.82;2.40;;;;;;;5.21;93.01;101281.13;10540827;28;20032;-73
2021/11/29 18:28:10;;;;;;;5.53;2.53;;;;;;;5.10;92.71;101284.84;10539901;28;20056;-73
2021/11/29 18:33:11;;;;;;;13.70;2.97;;;;;;;5.05;92.84;101283.63;10538722;28;20055;-73
2021/11/29 18:38:12;;;;;;;7.82;2.22;;;;;;;5.09;94.65;101295.75;10538911;28;20047;-72
2021/11/29 18:43:12;;;;;;;7.93;3.05;;;;;;;5.18;95.12;101292.16;10540023;28;20074;-72
2021/11/29 18:48:14;;;;;;;8.30;4.03;;;;;;;5.18;94.67;101286.78;10540207;28;20056;-74
2021/11/29 18:53:14;;;;;;;16.70;3.95;;;;;;;5.15;95.21;101287.09;10521414;28;20388;-73
2021/11/29 18:58:16;;;;;;;9.27;4.88;;;;;;;5.27;95.60;101290.41;10538371;28;20063;-74
2021/11/29 19:03:16;;;;;;;17.10;7.68;;;;;;;5.30;95.46;101296.31;10539217;28;20409;-74
2021/11/29 19:08:17;;;;;;;6.20;2.20;;;;;;;5.25;95.65;101298.59;10538417;28;20090;-75
2021/11/29 19:13:17;;;;;;;7.90;2.40;;;;;;;5.34;96.65;101292.31;10538727;28;20115;-73
2021/11/29 19:18:18;;;;;;;8.15;2.17;;;;;;;5.43;96.51;101290.56;10539634;28;20108;-73
2021/11/29 19:23:19;;;;;;;8.60;3.00;;;;;;;5.45;96.80;101285.84;10546376;28;20032;-73
2021/11/29 19:28:19;;;;;;;6.05;2.47;;;;;;;5.47;96.23;101291.91;10548602;28;20040;-73
2021/11/29 19:33:20;;;;;;;3.30;2.22;;;;;;;5.49;96.45;101281.03;10548291;28;20039;-74
2021/11/29 19:38:20;;;;;;;6.20;2.53;;;;;;;5.48;96.30;101258.69;10546304;28;20034;-74
2021/11/29 19:43:21;;;;;;;4.75;2.60;;;;;;;5.45;96.05;101266.22;10547221;28;20536;-73
2021/11/29 19:48:21;;;;;;;8.13;4.70;;;;;;;5.40;95.83;101252.41;10528551;28;20534;-74
2021/11/29 19:53:23;;;;;;;12.68;2.55;;;;;;;5.37;95.75;101264.31;10547321;28;20565;-75
2021/11/29 19:58:24;;;;;;;6.63;2.55;;;;;;;5.32;95.21;101270.13;10545427;28;20063;-75
2021/11/29 20:03:24;;;;;;;6.57;2.30;;;;;;;5.31;95.17;101268.44;10547554;28;20028;-74
2021/11/29 20:08:25;;;;;;;10.35;4.32;;;;;;;5.32;94.95;101264.75;10547216;28;20036;-73
2021/11/29 20:13:25;;;;;;;5.72;1.95;;;;;;;5.29;94.06;101275.81;10545698;28;20077;-73
2021/11/29 20:18:25;;;;;;;9.43;2.28;;;;;;;5.23;94.30;101271.06;10548918;28;20071;-74
2021/11/29 20:23:26;;;;;;;4.38;2.15;;;;;;;5.17;93.86;101262.75;10553414;28;20032;-73
2021/11/29 20:28:26;;;;;;;3.55;2.50;;;;;;;5.07;93.65;101268.22;10534568;28;20032;-74
2021/11/29 20:33:27;;;;;;;12.02;3.50;;;;;;;5.00;93.34;101272.50;10546002;28;20032;-75
2021/11/29 20:38:27;;;;;;;10.10;2.13;;;;;;;4.99;94.24;101271.66;10546341;28;20044;-73
2021/11/29 20:43:28;;;;;;;13.27;3.00;;;;;;;5.09;94.71;101250.97;10544105;28;20379;-74
2021/11/29 20:48:28;;;;;;;6.30;2.55;;;;;;;5.10;94.67;101257.16;10543697;28;20052;-75
2021/11/29 20:53:35;;;;;;;3.75;2.10;;;;;;;5.13;94.46;101262.22;10546029;28;20111;-75
2021/11/29 20:58:36;;;;;;;15.00;3.95;;;;;;;5.04;93.41;101263.13;10546448;28;20085;-74
2021/11/29 21:03:39;;;;;;;12.18;2.45;;;;;;;5.04;94.18;101253.28;10526371;28;20093;-74
2021/11/29 21:08:39;;;;;;;6.18;1.75;;;;;;;4.95;93.22;101254.19;10544814;28;20032;-75
2021/11/29 21:13:40;;;;;;;7.80;4.32;;;;;;;4.88;93.75;101251.28;10543831;28;20028;-74
2021/11/29 21:18:41;;;;;;;7.03;2.80;;;;;;;4.97;94.85;101245.97;10543748;28;20064;-74
2021/11/29 21:23:41;;;;;;;9.50;2.47;;;;;;;5.04;95.50;101242.53;10544250;28;20039;-73
2021/11/29 21:28:42;;;;;;;5.65;2.78;;;;;;;5.11;95.79;101238.25;10543515;28;20080;-74
2021/11/29 21:33:44;;;;;;;6.90;2.47;;;;;;;5.25;96.11;101231.47;10542495;28;20115;-73
2021/11/29 21:38:45;;;;;;;6.78;2.47;;;;;;;5.26;95.76;101219.72;10544505;28;20040;-75
2021/11/29 21:43:46;;;;;;;2.15;2.03;;;;;;;5.25;95.67;101217.22;10542911;28;20050;-73
2021/11/29 21:48:47;;;;;;;6.75;2.40;;;;;;;5.24;96.78;101196.72;10541265;28;20060;-73
2021/11/29 21:53:47;;;;;;;3.92;2.10;;;;;;;5.28;96.62;101198.94;10540566;28;20441;-72
2021/11/29 21:58:48;;;;;;;4.95;3.25;;;;;;;5.28;97.04;101180.16;10540936;28;20044;-74
2021/11/29 22:03:48;;;;;;;5.82;2.30;;;;;;;5.31;96.98;101177.16;10540790;28;20039;-73
2021/11/29 22:08:48;;;;;;;7.95;2.50;;;;;;;5.30;96.66;101182.69;10540560;28;20043;-72
2021/11/29 22:13:49;;;;;;;10.00;3.40;;;;;;;5.36;97.38;101177.53;10542030;28;20032;-73
2021/11/29 22:18:49;;;;;;;14.73;2.88;;;;;;;5.42;97.45;101177.88;10540253;28;20028;-72
2021/11/29 22:23:50;;;;;;;4.63;2.20;;;;;;;5.43;97.43;101167.00;10540244;28;20078;-73
2021/11/29 22:28:50;;;;;;;5.78;2.65;;;;;;;5.47;97.29;101170.22;10540106;28;20475;-73
2021/11/29 22:33:51;;;;;;;3.42;2.90;;;;;;;5.46;97.30;101136.31;10542372;28;20068;-73
2021/11/29 22:38:51;;;;;;;2.25;2.15;;;;;;;5.41;96.71;101139.44;10543266;28;20085;-74
2021/11/29 22:43:52;;;;;;;14.18;4.10;;;;;;;5.38;96.00;101141.63;10541632;28;20111;-75
2021/11/29 22:48:54;;;;;;;3.95;3.30;;;;;;;5.49;97.50;101144.06;10522304;28;20048;-74
2021/11/29 22:53:55;;;;;;;3.33;2.95;;;;;;;5.55;97.13;101146.94;10538342;28;20032;-74
2021/11/29 22:58:55;;;;;;;4.60;2.75;;;;;;;5.64;98.00;101153.19;10540375;28;20044;-72
2021/11/29 23:03:56;;;;;;;6.07;2.92;;;;;;;5.56;96.99;101137.03;10540219;28;20036;-73
2021/11/29 23:09:06;;;;;;;11.38;2.53;;;;;;;5.61;97.08;101118.56;10540064;28;20043;-72
2021/11/29 23:14:09;;;;;;;8.80;3.15;;;;;;;5.64;97.19;101126.31;10539875;28;20177;-74
2021/11/29 23:19:10;;;;;;;2.28;1.45;;;;;;;5.63;96.53;101102.31;10539928;28;20042;-73
2021/11/29 23:24:11;;;;;;;4.82;2.08;;;;;;;5.68;96.42;101094.59;10538525;28;20036;-73